createdAt,value
2023-03-06T00:02:24.112Z,33.20
2023-03-06T00:04:53.375Z,33.20
2023-03-06T00:07:22.475Z,33.20
2023-03-06T00:09:51.302Z,33.10
2023-03-06T00:12:20.534Z,33.20
2023-03-06T00:14:49.414Z,33.30
2023-03-06T00:17:18.490Z,33.20
2023-03-06T00:19:48.666Z,33.20
2023-03-06T00:22:17.998Z,33.20
2023-03-06T00:24:46.927Z,33.20
2023-03-06T00:27:16.049Z,33.20
2023-03-06T00:29:44.893Z,33.20
2023-03-06T00:32:14.880Z,33.20
2023-03-06T00:34:43.707Z,33.30
2023-03-06T00:37:14.144Z,33.30
2023-03-06T00:39:43.024Z,33.20
2023-03-06T00:42:12.331Z,33.10
2023-03-06T00:44:41.123Z,33.30
2023-03-06T00:47:11.241Z,33.20
2023-03-06T00:49:40.350Z,33.20
2023-03-06T00:52:09.455Z,33.20
2023-03-06T00:54:39.871Z,33.20
2023-03-06T00:57:09.695Z,33.20
2023-03-06T00:59:38.500Z,33.10
2023-03-06T01:02:08.392Z,33.20
2023-03-06T01:04:37.508Z,33.20
2023-03-06T01:07:06.909Z,33.10
2023-03-06T01:09:35.726Z,33.20
2023-03-06T01:12:06.825Z,33.20
2023-03-06T01:14:37.283Z,33.20
2023-03-06T01:17:06.666Z,33.20
2023-03-06T01:19:35.539Z,33.30
2023-03-06T01:22:04.766Z,33.20
2023-03-06T01:24:33.752Z,33.20
2023-03-06T01:27:02.840Z,33.20
2023-03-06T01:29:33.111Z,33.20
2023-03-06T01:32:02.360Z,33.20
2023-03-06T01:34:31.306Z,33.20
2023-03-06T01:37:00.444Z,33.20
2023-03-06T01:39:31.546Z,33.10
2023-03-06T01:42:00.714Z,33.20
2023-03-06T01:44:29.544Z,33.10
2023-03-06T01:47:02.376Z,33.20
2023-03-06T01:49:37.604Z,33.20
2023-03-06T01:52:12.199Z,33.30
2023-03-06T01:54:49.674Z,33.20
2023-03-06T01:57:25.137Z,33.00
2023-03-06T02:00:03.651Z,33.20
2023-03-06T02:02:47.763Z,33.20
2023-03-06T02:05:16.741Z,33.10
2023-03-06T02:07:48.072Z,33.20
2023-03-06T02:10:19.799Z,33.20
2023-03-06T02:12:51.862Z,33.30
2023-03-06T02:15:24.893Z,33.30
2023-03-06T02:17:57.667Z,33.30
2023-03-06T02:20:35.185Z,33.20
2023-03-06T02:23:11.534Z,33.10
2023-03-06T02:25:46.451Z,32.90
2023-03-06T02:28:19.794Z,32.80
2023-03-06T02:30:53.174Z,33.10
2023-03-06T02:33:26.197Z,32.80
2023-03-06T02:35:57.659Z,32.70
2023-03-06T02:38:35.612Z,33.50
2023-03-06T02:41:09.573Z,32.60
2023-03-06T02:43:42.205Z,32.70
2023-03-06T02:46:11.648Z,33.10
2023-03-06T02:48:40.850Z,32.90
2023-03-06T02:51:09.640Z,33.00
2023-03-06T02:53:38.790Z,32.90
2023-03-06T02:56:09.814Z,32.90
2023-03-06T02:58:39.379Z,33.10
2023-03-06T03:01:09.132Z,33.00
2023-03-06T03:03:38.527Z,33.00
2023-03-06T03:06:08.817Z,33.10
2023-03-06T03:08:39.607Z,32.60
2023-03-06T03:11:10.840Z,32.90
2023-03-06T03:13:42.757Z,32.70
2023-03-06T03:16:17.312Z,32.70
2023-03-06T03:18:48.059Z,32.50
2023-03-06T03:21:19.440Z,32.60
2023-03-06T03:23:50.293Z,32.90
2023-03-06T03:26:23.415Z,32.60
2023-03-06T03:29:06.399Z,32.60
2023-03-06T03:31:35.290Z,32.50
2023-03-06T03:34:05.336Z,32.40
2023-03-06T03:36:38.407Z,32.30
2023-03-06T03:39:10.303Z,32.40
2023-03-06T03:41:41.089Z,32.30
2023-03-06T03:44:11.785Z,32.40
2023-03-06T03:46:40.729Z,32.30
2023-03-06T03:49:15.126Z,32.40
2023-03-06T03:51:46.070Z,32.30
2023-03-06T03:54:15.663Z,32.30
2023-03-06T03:56:48.932Z,32.20
2023-03-06T03:59:24.478Z,32.00
2023-03-06T04:02:04.765Z,32.00
2023-03-06T04:04:38.376Z,31.90
2023-03-06T04:07:07.820Z,31.80
2023-03-06T04:09:37.191Z,31.80
2023-03-06T04:12:08.868Z,31.80
2023-03-06T04:14:39.344Z,31.60
2023-03-06T04:17:08.577Z,31.60
2023-03-06T04:19:37.731Z,31.50
2023-03-06T04:22:06.775Z,31.50
2023-03-06T04:24:38.287Z,31.40
2023-03-06T04:27:08.604Z,31.50
2023-03-06T04:29:37.743Z,31.50
2023-03-06T04:32:07.487Z,31.40
2023-03-06T04:34:36.843Z,31.50
2023-03-06T04:37:06.340Z,31.40
2023-03-06T04:39:35.395Z,31.50
2023-03-06T04:42:04.219Z,31.40
2023-03-06T04:44:34.698Z,31.40
2023-03-06T04:47:03.613Z,31.30
2023-03-06T04:49:32.696Z,31.40
2023-03-06T04:52:01.454Z,31.40
2023-03-06T04:54:30.969Z,31.20
2023-03-06T04:56:59.854Z,31.30
2023-03-06T04:59:28.971Z,31.30
2023-03-06T05:01:59.320Z,31.10
2023-03-06T05:04:28.400Z,31.20
2023-03-06T05:06:57.267Z,31.20
2023-03-06T05:09:26.378Z,31.20
2023-03-06T05:11:55.140Z,31.30
2023-03-06T05:14:24.161Z,31.10
2023-03-06T05:16:52.971Z,31.00
2023-03-06T05:19:23.469Z,31.00
2023-03-06T05:21:52.244Z,31.00
2023-03-06T05:24:21.410Z,31.00
2023-03-06T05:26:50.216Z,30.90
2023-03-06T05:29:19.320Z,31.00
2023-03-06T05:31:48.272Z,31.00
2023-03-06T05:34:18.445Z,31.00
2023-03-06T05:36:48.567Z,31.00
2023-03-06T05:39:17.905Z,31.10
2023-03-06T05:41:46.655Z,31.00
2023-03-06T05:44:15.817Z,31.20
2023-03-06T05:46:44.645Z,31.40
2023-03-06T05:49:13.693Z,31.40
2023-03-06T05:51:42.521Z,31.20
2023-03-06T05:54:12.957Z,31.20
2023-03-06T05:56:42.889Z,31.60
2023-03-06T05:59:12.046Z,31.80
2023-03-06T06:01:40.898Z,31.60
2023-03-06T06:04:11.574Z,31.70
2023-03-06T06:06:40.393Z,31.70
2023-03-06T06:09:11.752Z,31.70
2023-03-06T06:11:43.670Z,31.90
2023-03-06T06:14:12.726Z,32.00
2023-03-06T06:16:42.960Z,32.10
2023-03-06T06:19:18.470Z,32.20
2023-03-06T06:21:48.815Z,32.30
2023-03-06T06:24:19.868Z,32.30
2023-03-06T06:26:51.892Z,32.40
2023-03-06T06:29:22.058Z,32.60
2023-03-06T06:31:51.299Z,32.70
2023-03-06T06:34:21.432Z,32.60
2023-03-06T06:36:53.409Z,32.70
2023-03-06T06:39:25.056Z,32.90
2023-03-06T06:42:14.507Z,33.10
2023-03-06T06:44:44.297Z,33.10
2023-03-06T06:47:28.424Z,33.20
2023-03-06T06:49:58.394Z,33.30
2023-03-06T06:52:27.268Z,33.20
2023-03-06T06:54:56.625Z,33.30
2023-03-06T06:57:27.031Z,33.30
2023-03-06T06:59:56.139Z,33.30
2023-03-06T07:02:25.103Z,33.50
2023-03-06T07:05:03.773Z,33.50
2023-03-06T07:07:35.585Z,33.30
2023-03-06T07:10:08.707Z,33.60
2023-03-06T07:12:39.090Z,33.20
2023-03-06T07:15:10.026Z,33.40
2023-03-06T07:17:38.918Z,33.60
2023-03-06T07:20:10.477Z,33.20
2023-03-06T07:22:50.312Z,32.90
2023-03-06T07:25:21.561Z,33.10
2023-03-06T07:27:54.779Z,32.70
2023-03-06T07:30:25.133Z,32.50
2023-03-06T07:32:55.724Z,32.50
2023-03-06T07:35:26.061Z,32.50
2023-03-06T07:37:55.579Z,32.40
2023-03-06T07:40:25.218Z,33.40
2023-03-06T07:43:12.970Z,32.90
2023-03-06T07:45:58.187Z,32.70
2023-03-06T07:48:27.437Z,32.80
2023-03-06T07:50:59.690Z,32.40
2023-03-06T07:53:29.249Z,32.50
2023-03-06T07:55:58.564Z,32.70
2023-03-06T07:58:29.056Z,33.00
2023-03-06T08:00:58.257Z,32.60
2023-03-06T08:03:27.053Z,32.50
2023-03-06T08:05:56.153Z,32.80
2023-03-06T08:08:24.950Z,32.50
2023-03-06T08:10:54.017Z,32.60
2023-03-06T08:13:22.799Z,32.40
2023-03-06T08:15:53.243Z,32.50
2023-03-06T08:18:22.056Z,32.40
2023-03-06T08:20:51.128Z,32.40
2023-03-06T08:23:19.959Z,32.60
2023-03-06T08:25:57.904Z,32.60
2023-03-06T08:28:27.162Z,32.30
2023-03-06T08:30:58.472Z,32.40
2023-03-06T08:33:28.221Z,32.30
2023-03-06T08:35:57.374Z,32.20
2023-03-06T08:38:26.182Z,32.50
2023-03-06T08:40:55.262Z,32.10
2023-03-06T08:43:24.099Z,32.50
2023-03-06T08:45:54.431Z,32.80
2023-03-06T08:48:24.986Z,32.20
2023-03-06T08:50:54.806Z,32.30
2023-03-06T08:53:40.374Z,32.40
2023-03-06T08:56:18.416Z,32.50
2023-03-06T08:58:48.590Z,32.90
2023-03-06T09:01:20.710Z,32.10
2023-03-06T09:03:51.495Z,32.10
2023-03-06T09:06:20.768Z,31.50
2023-03-06T09:08:51.568Z,31.20
2023-03-06T09:11:24.345Z,31.60
2023-03-06T09:13:54.575Z,31.00
2023-03-06T09:16:24.264Z,31.20
2023-03-06T09:18:54.497Z,31.70
2023-03-06T09:21:24.967Z,31.80
2023-03-06T09:23:53.938Z,31.20
2023-03-06T09:26:27.953Z,31.40
2023-03-06T09:29:01.838Z,31.20
2023-03-06T09:31:32.116Z,31.70
2023-03-06T09:34:02.321Z,31.80
2023-03-06T09:36:31.519Z,31.90
2023-03-06T09:39:00.310Z,31.80
2023-03-06T09:41:34.345Z,31.50
2023-03-06T09:44:08.666Z,32.20
2023-03-06T09:47:00.560Z,32.10
2023-03-06T09:49:54.422Z,32.50
2023-03-06T09:52:38.645Z,32.70
2023-03-06T09:55:14.170Z,33.00
2023-03-06T09:57:54.618Z,33.20
2023-03-06T10:00:31.893Z,32.50
2023-03-06T10:03:19.340Z,32.40
2023-03-06T10:05:56.311Z,32.60
2023-03-06T10:08:36.165Z,33.20
2023-03-06T10:11:11.161Z,32.80
2023-03-06T10:13:44.850Z,32.50
2023-03-06T10:16:28.576Z,32.90
2023-03-06T10:19:03.749Z,33.10
2023-03-06T10:21:48.501Z,33.10
2023-03-06T10:24:36.781Z,32.50
2023-03-06T10:27:21.749Z,32.80
2023-03-06T10:30:04.463Z,32.60
2023-03-06T10:32:49.286Z,32.80
2023-03-06T10:35:23.369Z,32.50
2023-03-06T10:38:03.063Z,33.30
2023-03-06T10:40:45.400Z,33.50
2023-03-06T10:43:14.404Z,33.70
2023-03-06T10:45:52.452Z,33.80
2023-03-06T10:48:24.889Z,33.80
2023-03-06T10:51:18.093Z,33.00
2023-03-06T10:54:00.091Z,32.90
2023-03-06T10:56:33.311Z,33.40
2023-03-06T10:59:13.496Z,34.00
2023-03-06T11:01:45.568Z,33.60
2023-03-06T11:04:26.058Z,34.30
2023-03-06T11:07:16.572Z,34.00
2023-03-06T11:10:08.628Z,34.00
2023-03-06T11:12:39.988Z,34.50
2023-03-06T11:15:22.308Z,34.90
2023-03-06T11:18:00.436Z,35.20
2023-03-06T11:20:50.047Z,35.50
2023-03-06T11:23:36.721Z,35.40
2023-03-06T11:26:31.596Z,35.30
2023-03-06T11:29:38.854Z,35.00
2023-03-06T11:32:16.365Z,35.20
2023-03-06T11:34:52.246Z,35.20
2023-03-06T11:37:47.137Z,34.90
2023-03-06T11:40:25.346Z,34.60
2023-03-06T11:43:10.901Z,34.90
2023-03-06T11:45:46.893Z,35.50
2023-03-06T11:48:26.320Z,34.70
2023-03-06T11:51:06.496Z,35.00
2023-03-06T11:53:40.440Z,35.50
2023-03-06T11:56:31.880Z,35.70
2023-03-06T11:59:21.285Z,36.20
2023-03-06T12:02:02.735Z,35.50
2023-03-06T12:05:02.238Z,35.50
2023-03-06T12:07:35.368Z,35.70
2023-03-06T12:10:20.441Z,36.20
2023-03-06T12:16:36.361Z,36.50
2023-03-06T12:19:30.207Z,36.80
2023-03-06T12:22:29.659Z,36.60
2023-03-06T12:25:25.749Z,36.30
2023-03-06T12:28:15.415Z,36.40
2023-03-06T12:31:33.526Z,36.50
2023-03-06T12:34:19.951Z,36.80
2023-03-06T12:37:16.386Z,36.70
2023-03-06T12:40:15.225Z,36.60
2023-03-06T12:43:21.845Z,36.70
2023-03-06T12:45:54.817Z,36.60
2023-03-06T12:48:30.370Z,36.80
2023-03-06T12:51:01.085Z,36.80
2023-03-06T12:53:33.392Z,36.60
2023-03-06T12:56:05.050Z,36.30
2023-03-06T12:58:49.448Z,37.30
2023-03-06T13:01:44.203Z,36.50
2023-03-06T13:04:49.395Z,36.40
2023-03-06T13:07:38.402Z,36.40
2023-03-06T13:10:16.877Z,36.20
2023-03-06T13:13:01.050Z,35.80
2023-03-06T13:15:41.962Z,35.90
2023-03-06T13:18:49.156Z,36.10
2023-03-06T13:22:10.151Z,36.30
2023-03-06T13:24:40.385Z,36.50
2023-03-06T13:27:12.896Z,36.40
2023-03-06T13:30:26.758Z,36.60
2023-03-06T13:32:57.173Z,36.60
2023-03-06T13:35:55.496Z,36.50
2023-03-06T13:38:56.057Z,36.70
2023-03-06T13:41:58.236Z,36.80
2023-03-06T13:44:51.139Z,36.90
2023-03-06T13:48:15.881Z,36.70
2023-03-06T13:50:45.638Z,36.90
2023-03-06T13:54:09.557Z,36.90
2023-03-06T13:57:17.459Z,36.90
2023-03-06T14:00:42.376Z,36.70
2023-03-06T14:03:58.304Z,36.80
2023-03-06T14:07:11.282Z,37.00
2023-03-06T14:09:46.067Z,36.90
2023-03-06T14:12:24.106Z,36.90
2023-03-06T14:14:58.842Z,37.10
2023-03-06T14:17:32.952Z,37.20
2023-03-06T14:20:13.616Z,36.90
2023-03-06T14:22:42.762Z,37.00
2023-03-06T14:25:21.712Z,36.90
2023-03-06T14:27:58.190Z,36.90
2023-03-06T14:30:29.491Z,36.90
2023-03-06T14:32:58.453Z,37.00
2023-03-06T14:35:31.150Z,37.00
2023-03-06T14:38:04.613Z,37.00
2023-03-06T14:40:37.754Z,37.20
2023-03-06T14:43:24.591Z,37.10
2023-03-06T14:45:57.968Z,37.30
2023-03-06T14:48:39.597Z,37.40
2023-03-06T14:51:16.913Z,37.40
2023-03-06T14:53:48.955Z,37.60
2023-03-06T14:56:21.132Z,37.60
2023-03-06T14:58:58.497Z,37.60
2023-03-06T15:01:34.009Z,37.60
2023-03-06T15:04:08.055Z,37.60
2023-03-06T15:06:44.054Z,37.50
2023-03-06T15:09:20.943Z,37.60
2023-03-06T15:11:57.043Z,37.80
2023-03-06T15:14:37.115Z,37.80
2023-03-06T15:17:29.320Z,37.80
2023-03-06T15:20:00.535Z,37.90
2023-03-06T15:22:37.438Z,37.90
2023-03-06T15:25:27.675Z,38.00
2023-03-06T15:27:59.170Z,38.10
2023-03-06T15:30:33.488Z,38.10
2023-03-06T15:33:25.885Z,38.00
2023-03-06T15:35:57.521Z,38.00
2023-03-06T15:38:36.162Z,37.90
2023-03-06T15:41:07.840Z,38.00
2023-03-06T15:43:40.346Z,37.90
2023-03-06T15:46:12.361Z,38.00
2023-03-06T15:48:51.798Z,37.90
2023-03-06T15:51:20.830Z,37.80
2023-03-06T15:53:50.253Z,37.80
2023-03-06T15:56:25.728Z,37.80
2023-03-06T15:58:55.445Z,37.90
2023-03-06T16:01:26.235Z,37.80
2023-03-06T16:03:55.459Z,37.80
2023-03-06T16:06:26.092Z,37.60
2023-03-06T16:08:55.601Z,37.70
2023-03-06T16:11:41.866Z,37.60
2023-03-06T16:14:23.704Z,37.70
2023-03-06T16:16:55.174Z,37.50
2023-03-06T16:19:27.830Z,37.60
2023-03-06T16:21:59.027Z,37.70
2023-03-06T16:24:29.197Z,37.80
2023-03-06T16:27:01.621Z,37.60
2023-03-06T16:29:31.502Z,37.60
2023-03-06T16:32:02.084Z,37.60
2023-03-06T16:34:31.333Z,37.60
2023-03-06T16:37:00.150Z,37.70
2023-03-06T16:39:29.344Z,37.70
2023-03-06T16:41:58.375Z,37.70
2023-03-06T16:44:27.467Z,37.60
2023-03-06T16:46:56.289Z,37.60
2023-03-06T16:49:26.961Z,37.60
2023-03-06T16:51:56.356Z,37.50
2023-03-06T16:54:26.327Z,37.50
2023-03-06T16:56:55.206Z,37.50
2023-03-06T16:59:25.025Z,37.60
2023-03-06T17:01:53.914Z,37.50
2023-03-06T17:04:22.981Z,37.40
2023-03-06T17:06:53.376Z,37.50
2023-03-06T17:09:22.662Z,37.70
2023-03-06T17:11:51.473Z,37.50
2023-03-06T17:14:20.640Z,37.50
2023-03-06T17:16:49.480Z,37.70
2023-03-06T17:19:18.552Z,37.60
2023-03-06T17:21:47.355Z,37.60
2023-03-06T17:24:17.823Z,37.70
2023-03-06T17:26:48.519Z,37.70
2023-03-06T17:29:17.823Z,37.60
2023-03-06T17:31:48.126Z,37.60
2023-03-06T17:34:17.243Z,37.50
2023-03-06T17:36:46.051Z,37.50
2023-03-06T17:39:16.307Z,37.70
2023-03-06T17:41:46.641Z,37.60
2023-03-06T17:44:16.511Z,37.50
2023-03-06T17:46:45.852Z,37.70
2023-03-06T17:49:15.363Z,37.50
2023-03-06T17:51:44.153Z,37.50
2023-03-06T17:54:13.236Z,37.50
2023-03-06T17:56:42.317Z,37.40
2023-03-06T17:59:13.596Z,37.50
2023-03-06T18:01:43.532Z,37.50
2023-03-06T18:04:13.067Z,37.30
2023-03-06T18:06:41.880Z,37.20
2023-03-06T18:09:10.998Z,37.20
2023-03-06T18:11:39.912Z,37.40
2023-03-06T18:14:09.797Z,37.50
2023-03-06T18:16:40.183Z,37.60
2023-03-06T18:19:12.499Z,37.50
2023-03-06T18:21:41.742Z,37.40
2023-03-06T18:24:12.378Z,37.40
2023-03-06T18:26:43.348Z,37.40
2023-03-06T18:29:12.642Z,37.50
2023-03-06T18:31:44.807Z,37.20
2023-03-06T18:34:17.838Z,37.30
2023-03-06T18:36:50.742Z,37.20
2023-03-06T18:39:21.475Z,37.30
2023-03-06T18:41:51.771Z,37.40
2023-03-06T18:44:21.104Z,37.30
2023-03-06T18:46:51.421Z,37.30
2023-03-06T18:49:20.535Z,37.40
2023-03-06T18:51:51.717Z,37.30
2023-03-06T18:54:20.892Z,37.40
2023-03-06T18:56:49.731Z,37.20
2023-03-06T18:59:19.088Z,37.30
2023-03-06T19:01:48.749Z,37.30
2023-03-06T19:04:19.266Z,37.10
2023-03-06T19:06:48.177Z,36.80
2023-03-06T19:09:18.697Z,36.70
2023-03-06T19:11:47.655Z,36.80
2023-03-06T19:14:17.257Z,36.80
2023-03-06T19:16:46.267Z,36.90
2023-03-06T19:19:15.320Z,36.70
2023-03-06T19:21:45.581Z,36.80
2023-03-06T19:24:14.693Z,36.70
2023-03-06T19:26:43.750Z,36.60
2023-03-06T19:29:13.125Z,36.90
2023-03-06T19:31:42.925Z,36.80
2023-03-06T19:34:12.312Z,36.80
2023-03-06T19:36:41.153Z,36.60
2023-03-06T19:39:13.083Z,36.50
2023-03-06T19:41:41.884Z,36.60
2023-03-06T19:44:12.292Z,36.60
2023-03-06T19:46:41.233Z,36.50
2023-03-06T19:49:16.967Z,36.60
2023-03-06T19:51:46.024Z,36.70
2023-03-06T19:54:16.587Z,36.60
2023-03-06T19:56:45.361Z,36.60
2023-03-06T19:59:14.470Z,36.60
2023-03-06T20:01:43.393Z,36.50
2023-03-06T20:04:12.676Z,36.30
2023-03-06T20:06:41.539Z,36.60
2023-03-06T20:09:12.393Z,36.40
2023-03-06T20:11:42.563Z,36.40
2023-03-06T20:14:14.148Z,36.50
2023-03-06T20:16:42.954Z,36.50
2023-03-06T20:19:12.899Z,36.40
2023-03-06T20:21:41.711Z,37.30
2023-03-06T20:24:16.758Z,36.50
2023-03-06T20:26:48.967Z,36.40
2023-03-06T20:29:18.113Z,36.40
2023-03-06T20:31:47.215Z,36.50
2023-03-06T20:34:16.416Z,36.50
2023-03-06T20:36:45.219Z,36.50
2023-03-06T20:39:18.579Z,36.50
2023-03-06T20:41:49.511Z,36.50
2023-03-06T20:44:20.447Z,36.50
2023-03-06T20:46:49.274Z,36.70
2023-03-06T20:49:18.773Z,36.70
2023-03-06T20:51:47.617Z,36.50
2023-03-06T20:54:17.861Z,36.70
2023-03-06T20:56:50.416Z,36.70
2023-03-06T20:59:20.269Z,36.80
2023-03-06T21:01:49.161Z,36.80
2023-03-06T21:04:18.601Z,36.80
2023-03-06T21:06:48.020Z,36.90
2023-03-06T21:09:18.624Z,37.00
2023-03-06T21:11:49.359Z,36.90
2023-03-06T21:14:18.453Z,36.90
2023-03-06T21:16:47.236Z,36.90
2023-03-06T21:19:16.880Z,36.90
2023-03-06T21:21:45.666Z,37.00
2023-03-06T21:24:16.684Z,36.80
2023-03-06T21:26:45.540Z,36.80
2023-03-06T21:29:16.036Z,36.80
2023-03-06T21:31:44.906Z,36.90
2023-03-06T21:34:14.032Z,36.80
2023-03-06T21:36:43.595Z,36.90
2023-03-06T21:39:12.940Z,37.60
2023-03-06T21:41:42.565Z,36.80
2023-03-06T21:44:12.206Z,36.80
2023-03-06T21:46:42.443Z,36.80
2023-03-06T21:49:11.569Z,36.80
2023-03-06T21:51:40.548Z,36.90
2023-03-06T21:54:09.851Z,36.80
2023-03-06T21:56:38.650Z,36.80
2023-03-06T21:59:07.719Z,36.70
2023-03-06T22:01:36.671Z,36.80
2023-03-06T22:04:07.250Z,36.80
2023-03-06T22:06:36.200Z,36.70
2023-03-06T22:09:05.407Z,36.80
2023-03-06T22:11:37.244Z,36.90
2023-03-06T22:14:07.023Z,36.70
2023-03-06T22:16:35.885Z,36.70
2023-03-06T22:19:07.291Z,36.80
2023-03-06T22:21:36.107Z,36.90
2023-03-06T22:24:05.857Z,36.80
2023-03-06T22:26:34.644Z,36.90
2023-03-06T22:29:03.745Z,37.00
2023-03-06T22:31:32.678Z,37.00
2023-03-06T22:34:02.687Z,36.90
2023-03-06T22:36:33.086Z,37.00
2023-03-06T22:39:04.230Z,36.90
2023-03-06T22:41:33.269Z,36.90
2023-03-06T22:44:03.942Z,36.90
2023-03-06T22:46:34.114Z,36.90
2023-03-06T22:49:03.844Z,36.80
2023-03-06T22:51:34.123Z,36.80
2023-03-06T22:54:03.238Z,36.80
2023-03-06T22:56:32.574Z,36.70
2023-03-06T22:59:01.741Z,36.70
2023-03-06T23:01:33.025Z,36.70
2023-03-06T23:04:04.403Z,36.80
2023-03-06T23:06:38.014Z,36.70
2023-03-06T23:09:09.800Z,36.70
2023-03-06T23:11:56.950Z,36.50
2023-03-06T23:14:49.506Z,36.60
2023-03-06T23:17:37.156Z,36.50
2023-03-06T23:20:24.955Z,36.20
2023-03-06T23:23:13.745Z,36.10
2023-03-06T23:25:43.690Z,35.80
2023-03-06T23:28:13.154Z,36.00
2023-03-06T23:30:43.591Z,35.70
2023-03-06T23:33:12.715Z,35.60
2023-03-06T23:35:43.541Z,35.60
2023-03-06T23:38:13.901Z,35.70
2023-03-06T23:40:43.903Z,35.70
2023-03-06T23:43:12.742Z,35.60
2023-03-06T23:45:41.763Z,35.50
2023-03-06T23:48:11.581Z,35.30
2023-03-06T23:50:41.354Z,35.30
2023-03-06T23:53:10.145Z,35.30
2023-03-06T23:55:44.226Z,35.30
2023-03-06T23:58:15.590Z,35.30
